Time;durP1;ratioP1;P1;durP2;ratioP2;P2;SDS_P1;SDS_P2;PMS_P1;PMS_P2;Temp;Humidity;BMP_temperature;BMP_pressure;BME280_temperature;BME280_humidity;BME280_pressure;Samples;Min_cycle;Max_cycle;Signal;HPM_P1;HPM_P2
2024/04/13 00:01:19;;;;;;;7.53;4.53;;;;;;;10.52;100.00;99414.03;5440455;26;20335;-77
2024/04/13 00:03:44;;;;;;;6.67;4.70;;;;;;;10.56;100.00;99414.75;5437679;26;20233;-77
2024/04/13 00:06:15;;;;;;;4.97;4.40;;;;;;;10.52;100.00;99418.50;5426648;26;20600;-78
2024/04/13 00:08:44;;;;;;;6.13;4.70;;;;;;;10.46;100.00;99408.22;5437227;26;20296;-78
2024/04/13 00:11:12;;;;;;;5.67;4.50;;;;;;;10.47;100.00;99415.22;5442894;26;20300;-78
2024/04/13 00:13:38;;;;;;;9.03;4.60;;;;;;;10.42;100.00;99412.78;5442584;26;20238;-78
2024/04/13 00:16:07;;;;;;;6.83;4.77;;;;;;;10.36;100.00;99417.50;5442411;26;20263;-78
2024/04/13 00:18:32;;;;;;;6.97;5.00;;;;;;;10.34;100.00;99414.94;5442273;26;20240;-78
2024/04/13 00:21:04;;;;;;;5.50;4.47;;;;;;;10.30;100.00;99408.09;5441675;26;20239;-78
2024/04/13 00:23:32;;;;;;;4.60;4.10;;;;;;;10.25;100.00;99412.75;5440977;26;20220;-78
2024/04/13 00:26:01;;;;;;;5.63;4.80;;;;;;;10.23;100.00;99405.81;5441844;26;20265;-78
2024/04/13 00:28:27;;;;;;;8.80;5.50;;;;;;;10.21;100.00;99407.69;5442207;26;20239;-78
2024/04/13 00:30:56;;;;;;;9.47;6.63;;;;;;;10.21;100.00;99407.69;5441596;26;20297;-77
2024/04/13 00:33:21;;;;;;;8.97;5.33;;;;;;;10.26;100.00;99400.38;5443510;26;20223;-78
2024/04/13 00:35:50;;;;;;;7.90;5.53;;;;;;;10.19;100.00;99405.09;5443940;26;20278;-78
2024/04/13 00:38:16;;;;;;;6.70;5.37;;;;;;;10.14;100.00;99406.22;5445005;26;20590;-78
2024/04/13 00:40:47;;;;;;;6.03;5.43;;;;;;;10.14;100.00;99399.19;5446152;26;20244;-78
2024/04/13 00:43:12;;;;;;;7.97;6.13;;;;;;;10.24;100.00;99399.59;5445303;26;20225;-78
2024/04/13 00:45:45;;;;;;;7.17;5.90;;;;;;;10.23;100.00;99397.88;5445232;26;20342;-78
2024/04/13 00:48:12;;;;;;;8.70;5.23;;;;;;;10.18;100.00;99391.97;5445006;26;20223;-78
2024/04/13 00:50:41;;;;;;;7.23;5.00;;;;;;;10.13;100.00;99394.81;5444693;26;20365;-78
2024/04/13 00:53:11;;;;;;;6.70;5.40;;;;;;;10.07;100.00;99383.69;5444543;26;20350;-78
2024/04/13 00:55:39;;;;;;;5.33;4.60;;;;;;;10.01;100.00;99382.16;5444674;26;20230;-78
2024/04/13 00:58:08;;;;;;;5.83;4.83;;;;;;;9.95;100.00;99381.59;5444494;26;20339;-77
2024/04/13 01:00:36;;;;;;;6.23;4.80;;;;;;;9.91;100.00;99374.75;5443735;26;20239;-78
2024/04/13 01:03:03;;;;;;;6.87;5.07;;;;;;;9.84;100.00;99375.97;5444291;26;20235;-78
2024/04/13 01:05:32;;;;;;;7.43;5.53;;;;;;;9.82;100.00;99377.81;5444441;26;20226;-78
2024/04/13 01:07:58;;;;;;;5.97;5.13;;;;;;;9.76;100.00;99368.41;5444630;26;20235;-78
2024/04/13 01:10:27;;;;;;;6.27;5.10;;;;;;;9.75;100.00;99376.38;5444080;26;20299;-78
2024/04/13 01:12:52;;;;;;;6.37;5.27;;;;;;;9.72;100.00;99376.53;5444287;26;20223;-78
2024/04/13 01:15:26;;;;;;;7.83;5.63;;;;;;;9.72;100.00;99379.19;5443700;26;20562;-78
2024/04/13 01:17:53;;;;;;;8.60;5.70;;;;;;;9.75;100.00;99376.38;5444075;26;20273;-77
2024/04/13 01:20:21;;;;;;;8.33;5.60;;;;;;;9.74;100.00;99380.78;5443621;26;20374;-78
2024/04/13 01:22:47;;;;;;;6.83;5.43;;;;;;;9.73;100.00;99372.97;5444172;26;20278;-77
2024/04/13 01:25:21;;;;;;;7.37;5.20;;;;;;;9.73;100.00;99389.66;5443818;26;20325;-77
2024/04/13 01:27:47;;;;;;;9.40;5.57;;;;;;;9.80;100.00;99374.38;5443951;26;20347;-78
2024/04/13 01:30:17;;;;;;;7.63;5.27;;;;;;;9.87;100.00;99373.16;5443658;26;20745;-78
2024/04/13 01:32:44;;;;;;;8.23;5.53;;;;;;;9.85;100.00;99375.88;5444005;26;20251;-77
2024/04/13 01:35:13;;;;;;;7.07;5.37;;;;;;;9.83;100.00;99372.47;5444745;26;20333;-77
2024/04/13 01:37:40;;;;;;;6.17;4.90;;;;;;;9.82;100.00;99369.88;5444340;26;20571;-78
2024/04/13 01:40:10;;;;;;;9.07;5.70;;;;;;;9.80;100.00;99375.22;5443863;26;20245;-78
2024/04/13 01:42:41;;;;;;;10.13;5.60;;;;;;;9.80;100.00;99379.66;5444198;26;20219;-77
2024/04/13 01:45:09;;;;;;;6.90;5.37;;;;;;;9.80;100.00;99384.94;5443332;26;20259;-77
2024/04/13 01:47:35;;;;;;;7.50;6.13;;;;;;;9.80;100.00;99379.66;5444126;26;20278;-78
2024/04/13 01:50:03;;;;;;;7.97;6.03;;;;;;;9.83;100.00;99380.38;5444362;26;20681;-78
2024/04/13 01:52:29;;;;;;;7.13;5.90;;;;;;;9.80;100.00;99375.22;5443802;26;20261;-78
2024/04/13 01:54:58;;;;;;;10.40;6.33;;;;;;;9.81;100.00;99382.25;5444218;25;20967;-78
2024/04/13 01:57:24;;;;;;;7.20;5.53;;;;;;;9.77;100.00;99377.16;5443634;26;20270;-78
2024/04/13 01:59:54;;;;;;;6.90;5.33;;;;;;;9.70;100.00;99379.25;5441845;26;20830;-78
2024/04/13 02:02:20;;;;;;;8.13;5.90;;;;;;;9.69;100.00;99387.22;5443449;26;20323;-78
2024/04/13 02:04:48;;;;;;;8.67;5.80;;;;;;;9.63;100.00;99382.22;5443253;26;20240;-77
2024/04/13 02:07:14;;;;;;;7.13;5.90;;;;;;;9.59;100.00;99380.63;5444149;26;20373;-77
2024/04/13 02:09:42;;;;;;;7.83;6.57;;;;;;;9.55;100.00;99389.66;5443194;26;20250;-78
2024/04/13 02:12:08;;;;;;;8.00;5.93;;;;;;;9.50;100.00;99386.34;5443557;26;20275;-77
2024/04/13 02:14:36;;;;;;;9.10;5.97;;;;;;;9.41;100.00;99390.25;5443505;26;20733;-77
2024/04/13 02:17:05;;;;;;;7.37;6.00;;;;;;;9.40;100.00;99391.19;5443778;26;20714;-78
2024/04/13 02:19:33;;;;;;;8.90;6.50;;;;;;;9.37;100.00;99395.75;5443357;26;20312;-78
2024/04/13 02:22:00;;;;;;;7.00;6.00;;;;;;;9.34;100.00;99394.09;5443485;26;20221;-78
2024/04/13 02:24:29;;;;;;;7.93;6.50;;;;;;;9.33;100.00;99402.06;5443271;26;20752;-77
2024/04/13 02:26:54;;;;;;;11.63;6.90;;;;;;;9.36;100.00;99391.41;5442976;26;20260;-77
2024/04/13 02:29:25;;;;;;;9.63;7.17;;;;;;;9.43;100.00;99395.47;5442950;26;20256;-78
2024/04/13 02:31:51;;;;;;;8.20;6.60;;;;;;;9.38;100.00;99392.19;5442601;26;20260;-77
2024/04/13 02:34:22;;;;;;;9.83;7.07;;;;;;;9.36;100.00;99388.75;5443023;26;20276;-78
2024/04/13 02:36:48;;;;;;;9.10;6.77;;;;;;;9.35;100.00;99381.75;5442885;26;20346;-78
2024/04/13 02:39:18;;;;;;;8.47;6.63;;;;;;;9.30;100.00;99381.94;5442682;26;20233;-77
2024/04/13 02:41:43;;;;;;;10.80;6.47;;;;;;;9.28;100.00;99380.31;5442553;26;20232;-77
2024/04/13 02:44:11;;;;;;;9.27;7.33;;;;;;;9.22;100.00;99375.31;5442734;26;20691;-77
2024/04/13 02:46:37;;;;;;;9.57;6.73;;;;;;;9.17;100.00;99383.44;5442775;26;20288;-78
2024/04/13 02:49:05;;;;;;;9.17;7.23;;;;;;;9.10;100.00;99378.47;5442938;26;20321;-77
2024/04/13 02:51:33;;;;;;;10.23;7.40;;;;;;;9.01;100.00;99384.16;5442437;26;20248;-77
2024/04/13 02:54:02;;;;;;;10.60;7.33;;;;;;;8.95;100.00;99389.69;5442266;26;20224;-78
2024/04/13 02:56:28;;;;;;;8.57;6.70;;;;;;;8.90;100.00;99384.63;5442048;26;20283;-78
2024/04/13 02:58:56;;;;;;;7.97;7.10;;;;;;;8.90;100.00;99383.75;5442009;26;20236;-78
2024/04/13 03:01:21;;;;;;;11.23;7.20;;;;;;;8.85;100.00;99391.88;5441281;26;20580;-77
2024/04/13 03:03:50;;;;;;;10.67;7.63;;;;;;;8.82;100.00;99396.41;5442132;26;20324;-78
2024/04/13 03:06:15;;;;;;;12.03;7.93;;;;;;;8.81;100.00;99397.34;5441745;26;20718;-78
2024/04/13 03:08:48;;;;;;;11.33;7.50;;;;;;;8.81;100.00;99395.53;5441347;26;20297;-78
2024/04/13 03:11:14;;;;;;;10.67;7.60;;;;;;;8.80;100.00;99401.75;5441086;26;20244;-77
2024/04/13 03:13:42;;;;;;;9.40;7.73;;;;;;;8.80;100.00;99398.25;5441436;26;20638;-77
2024/04/13 03:16:09;;;;;;;8.67;7.77;;;;;;;8.78;100.00;99400.97;5441392;26;20568;-77
2024/04/13 03:18:39;;;;;;;11.30;7.77;;;;;;;8.78;100.00;99397.47;5445961;26;20226;-79
2024/04/13 03:21:05;;;;;;;11.43;7.47;;;;;;;8.79;100.00;99391.25;5441445;26;20232;-78
2024/04/13 03:23:35;;;;;;;10.07;7.40;;;;;;;8.80;100.00;99395.59;5441961;26;20273;-77
2024/04/13 03:26:04;;;;;;;8.53;7.23;;;;;;;8.78;100.00;99397.47;5441782;26;20263;-78
2024/04/13 03:28:33;;;;;;;10.13;6.83;;;;;;;8.80;100.00;99392.97;5441651;26;20232;-78
2024/04/13 03:30:59;;;;;;;11.20;7.70;;;;;;;8.75;100.00;99392.34;5440779;26;20348;-78
2024/04/13 03:33:27;;;;;;;10.37;7.53;;;;;;;8.76;100.00;99391.41;5441748;26;20237;-77
2024/04/13 03:35:53;;;;;;;10.23;7.30;;;;;;;8.76;100.00;99381.69;5441990;26;20271;-78
2024/04/13 03:38:22;;;;;;;9.17;7.10;;;;;;;8.75;100.00;99395.81;5442209;26;20224;-77
2024/04/13 03:40:47;;;;;;;9.93;8.20;;;;;;;8.73;100.00;99391.50;5441535;26;20253;-78
2024/04/13 03:43:18;;;;;;;7.87;6.97;;;;;;;8.75;100.00;99392.34;5441594;26;20226;-78
2024/04/13 03:45:52;;;;;;;9.77;7.73;;;;;;;8.76;100.00;99396.69;5441567;26;20703;-78
2024/04/13 03:48:20;;;;;;;9.40;7.67;;;;;;;8.72;100.00;99389.81;5441875;26;20756;-78
2024/04/13 03:50:46;;;;;;;9.67;7.40;;;;;;;8.70;100.00;99396.94;5441268;26;20284;-78
2024/04/13 03:53:15;;;;;;;10.47;8.20;;;;;;;8.67;100.00;99397.03;5441631;26;20359;-78
2024/04/13 03:55:40;;;;;;;10.17;7.13;;;;;;;8.66;100.00;99390.06;5441280;26;20604;-78
2024/04/13 03:58:08;;;;;;;10.90;7.40;;;;;;;8.61;100.00;99392.03;5441401;26;20228;-77
2024/04/13 04:00:36;;;;;;;8.87;7.37;;;;;;;8.58;100.00;99389.53;5440427;26;20246;-77
2024/04/13 04:03:05;;;;;;;10.50;7.80;;;;;;;8.54;100.00;99395.84;5440625;26;20228;-78
2024/04/13 04:05:30;;;;;;;10.27;7.57;;;;;;;8.48;100.00;99390.81;5440884;26;20313;-77
2024/04/13 04:07:59;;;;;;;11.10;8.43;;;;;;;8.42;100.00;99385.81;5442629;26;20236;-78
2024/04/13 04:10:25;;;;;;;9.17;7.30;;;;;;;8.39;100.00;99385.94;5444448;26;20228;-78
2024/04/13 04:12:53;;;;;;;9.57;8.10;;;;;;;8.39;100.00;99385.94;5452139;26;20224;-78
2024/04/13 04:15:19;;;;;;;11.90;7.83;;;;;;;8.35;100.00;99387.84;5444686;26;20716;-77
2024/04/13 04:17:50;;;;;;;9.93;7.93;;;;;;;8.38;100.00;99395.59;5444514;26;20263;-78
2024/04/13 04:20:15;;;;;;;8.73;7.07;;;;;;;8.39;100.00;99396.47;5443853;26;20672;-77
2024/04/13 04:22:45;;;;;;;9.93;8.10;;;;;;;8.36;100.00;99386.91;5444363;26;20228;-77
2024/04/13 04:25:10;;;;;;;9.43;7.87;;;;;;;8.37;100.00;99388.63;5444480;26;20346;-77
2024/04/13 04:27:39;;;;;;;10.60;8.27;;;;;;;8.37;100.00;99383.38;5443988;26;20224;-78
2024/04/13 04:30:05;;;;;;;11.80;7.90;;;;;;;8.38;100.00;99373.69;5443473;26;20301;-77
2024/04/13 04:32:33;;;;;;;11.20;8.00;;;;;;;8.40;100.00;99382.38;5443475;26;20263;-77
2024/04/13 04:35:02;;;;;;;9.77;8.20;;;;;;;8.45;100.00;99390.97;5443006;26;20361;-78
2024/04/13 04:37:30;;;;;;;11.20;8.07;;;;;;;8.48;100.00;99378.53;5443296;26;20566;-77
2024/04/13 04:39:55;;;;;;;9.57;7.70;;;;;;;8.53;100.00;99386.22;5443539;26;20357;-77
2024/04/13 04:42:24;;;;;;;11.43;8.03;;;;;;;8.55;100.00;99384.38;5443909;26;20227;-77
2024/04/13 04:44:50;;;;;;;10.33;8.23;;;;;;;8.65;100.00;99381.31;5443954;26;20601;-77
2024/04/13 04:47:19;;;;;;;9.43;7.97;;;;;;;8.67;100.00;99386.50;5444049;26;20250;-77
2024/04/13 04:49:46;;;;;;;11.93;8.70;;;;;;;8.69;100.00;99389.94;5444065;26;20283;-78
2024/04/13 04:52:17;;;;;;;10.77;7.97;;;;;;;8.72;100.00;99382.78;5444190;26;20262;-78
2024/04/13 04:54:42;;;;;;;10.20;8.47;;;;;;;8.78;100.00;99374.59;5444101;26;20616;-78
2024/04/13 04:57:11;;;;;;;10.20;8.00;;;;;;;8.80;100.00;99387.69;5444389;26;20271;-78
2024/04/13 04:59:38;;;;;;;10.90;7.57;;;;;;;8.84;100.00;99390.16;5443171;26;20232;-77
2024/04/13 05:02:06;;;;;;;12.17;8.20;;;;;;;8.87;100.00;99383.91;5443681;26;20261;-78
2024/04/13 05:04:32;;;;;;;10.03;7.97;;;;;;;8.88;100.00;99385.63;5443972;26;20349;-77
2024/04/13 05:07:03;;;;;;;9.10;7.80;;;;;;;8.85;100.00;99391.00;5444265;26;20243;-77
2024/04/13 05:09:31;;;;;;;10.90;8.00;;;;;;;8.83;100.00;99387.59;5443858;26;20252;-78
2024/04/13 05:11:59;;;;;;;10.30;8.47;;;;;;;8.81;100.00;99394.72;5441861;26;20244;-77
2024/04/13 05:14:28;;;;;;;13.37;9.27;;;;;;;8.79;100.00;99396.53;5443534;26;20288;-77
2024/04/13 05:16:56;;;;;;;11.73;8.87;;;;;;;8.75;100.00;99400.25;5443854;26;20263;-77
2024/04/13 05:19:22;;;;;;;10.97;8.60;;;;;;;8.73;100.00;99405.56;5443297;26;20285;-77
2024/04/13 05:21:50;;;;;;;10.77;8.63;;;;;;;8.74;100.00;99403.78;5443278;26;20315;-77
2024/04/13 05:24:15;;;;;;;11.40;8.37;;;;;;;8.68;100.00;99399.63;5443393;26;20650;-78
2024/04/13 05:26:48;;;;;;;9.87;8.03;;;;;;;8.65;100.00;99391.88;5443500;26;20225;-77
2024/04/13 05:29:13;;;;;;;10.60;8.80;;;;;;;8.65;100.00;99391.88;5448346;26;20220;-78
2024/04/13 05:31:42;;;;;;;8.53;7.63;;;;;;;8.61;100.00;99398.16;5449559;26;20228;-79
2024/04/13 05:34:07;;;;;;;9.53;8.20;;;;;;;8.64;100.00;99394.56;5443806;26;20243;-78
2024/04/13 05:36:35;;;;;;;10.73;8.17;;;;;;;8.66;100.00;99397.97;5443741;26;20224;-77
2024/04/13 05:39:01;;;;;;;11.70;8.63;;;;;;;8.74;100.00;99393.22;5443064;26;20394;-77
2024/04/13 05:41:30;;;;;;;9.10;7.87;;;;;;;8.78;100.00;99394.81;5442642;26;20340;-77
2024/04/13 05:43:58;;;;;;;9.57;8.23;;;;;;;8.86;100.00;99392.72;5442805;26;20259;-77
2024/04/13 05:46:26;;;;;;;11.67;8.80;;;;;;;8.91;100.00;99388.97;5443176;26;20255;-77
2024/04/13 05:48:52;;;;;;;11.77;8.37;;;;;;;8.95;100.00;99379.16;5443862;26;20700;-78
2024/04/13 05:51:20;;;;;;;10.07;8.80;;;;;;;9.05;100.00;99391.88;5443228;26;20240;-77
2024/04/13 05:53:45;;;;;;;10.37;8.37;;;;;;;9.15;100.00;99394.97;5442759;26;20344;-77
2024/04/13 05:56:13;;;;;;;11.50;8.07;;;;;;;9.31;100.00;99396.84;5442067;25;20358;-77
2024/04/13 05:58:39;;;;;;;9.23;8.17;;;;;;;9.50;100.00;99391.63;5444068;26;20681;-77
2024/04/13 06:01:10;;;;;;;12.70;8.83;;;;;;;9.72;100.00;99402.94;5444546;26;20246;-76
2024/04/13 06:03:35;;;;;;;11.37;8.27;;;;;;;9.89;100.00;99401.22;5439426;26;20755;-77
2024/04/13 06:06:03;;;;;;;9.70;8.17;;;;;;;10.10;100.00;99402.03;5440633;26;20320;-77
2024/04/13 06:08:29;;;;;;;9.27;7.20;;;;;;;10.22;100.00;99401.47;5440843;26;20343;-75
2024/04/13 06:10:57;;;;;;;11.37;7.83;;;;;;;10.39;100.00;99391.78;5440681;26;20390;-75
2024/04/13 06:13:23;;;;;;;8.07;6.60;;;;;;;10.60;100.00;99390.75;5441192;26;20332;-76
2024/04/13 06:15:51;;;;;;;10.20;7.60;;;;;;;10.80;100.00;99381.81;5441160;26;20224;-79
2024/04/13 06:18:19;;;;;;;7.37;6.23;;;;;;;10.94;100.00;99389.91;5441450;26;20242;-78
2024/04/13 06:20:47;;;;;;;10.73;7.13;;;;;;;11.11;100.00;99387.25;5440730;26;20588;-76
2024/04/13 06:23:13;;;;;;;9.27;6.83;;;;;;;11.22;100.00;99395.50;5441370;26;20584;-78
2024/04/13 06:25:41;;;;;;;9.27;6.67;;;;;;;11.34;100.00;99384.25;5441306;26;20225;-76
2024/04/13 06:28:07;;;;;;;9.37;7.17;;;;;;;11.52;100.00;99385.94;5440968;26;20631;-76
2024/04/13 06:30:35;;;;;;;7.63;6.47;;;;;;;11.64;100.00;99393.25;5440644;26;20235;-78
2024/04/13 06:33:00;;;;;;;9.60;6.57;;;;;;;11.78;100.00;99390.72;5440837;26;20610;-76
2024/04/13 06:35:31;;;;;;;7.50;6.27;;;;;;;11.87;100.00;99395.53;5440994;26;20225;-76
2024/04/13 06:37:57;;;;;;;7.73;6.43;;;;;;;11.95;100.00;99388.00;5440857;26;20693;-77
2024/04/13 06:40:25;;;;;;;9.87;6.63;;;;;;;12.12;100.00;99374.69;5440559;26;20236;-76
2024/04/13 06:42:50;;;;;;;7.90;6.37;;;;;;;12.16;100.00;99385.03;5439622;26;20259;-76
2024/04/13 06:45:19;;;;;;;9.63;6.40;;;;;;;12.26;100.00;99378.28;5446035;26;20707;-79
2024/04/13 06:47:45;;;;;;;9.43;6.03;;;;;;;12.37;100.00;99380.31;5446019;26;20225;-80
2024/04/13 06:50:13;;;;;;;6.67;5.97;;;;;;;12.57;100.00;99386.19;5447898;26;20236;-81
2024/04/13 06:52:41;;;;;;;9.57;6.40;;;;;;;12.68;100.00;99380.28;5449136;26;20374;-80
2024/04/13 06:55:10;;;;;;;8.37;6.27;;;;;;;12.82;100.00;99377.66;5448908;26;20300;-80
2024/04/13 06:57:35;;;;;;;7.47;6.20;;;;;;;12.89;100.00;99373.72;5448216;26;20217;-81
2024/04/13 07:00:04;;;;;;;10.07;6.00;;;;;;;12.95;100.00;99368.94;5447232;26;20733;-81
2024/04/13 07:02:30;;;;;;;8.20;6.67;;;;;;;13.01;100.00;99367.72;5447670;26;20236;-81
2024/04/13 07:04:58;;;;;;;8.57;6.07;;;;;;;13.01;100.00;99373.03;5446051;26;20223;-81
2024/04/13 07:07:23;;;;;;;9.70;5.57;;;;;;;13.06;99.40;99365.63;5449464;26;20341;-81
2024/04/13 07:09:55;;;;;;;6.60;5.40;;;;;;;13.12;98.34;99371.44;5448050;26;20244;-82
2024/04/13 07:12:20;;;;;;;6.87;5.57;;;;;;;13.17;96.01;99357.88;5447954;26;20288;-80
2024/04/13 07:14:49;;;;;;;8.03;5.40;;;;;;;13.25;94.87;99356.47;5448128;26;20224;-81
2024/04/13 07:17:14;;;;;;;6.37;5.73;;;;;;;13.42;93.19;99343.03;5447837;26;20333;-81
2024/04/13 07:19:42;;;;;;;8.57;6.20;;;;;;;13.58;94.25;99340.28;5445821;26;20361;-81
2024/04/13 07:22:09;;;;;;;7.93;5.73;;;;;;;13.75;93.99;99346.22;5443193;26;20473;-79
2024/04/13 07:24:37;;;;;;;5.70;4.97;;;;;;;13.91;93.17;99351.44;5444076;26;20266;-79
2024/04/13 07:27:05;;;;;;;5.90;5.20;;;;;;;14.10;89.52;99331.56;5443571;26;20353;-80
2024/04/13 07:29:33;;;;;;;8.47;5.73;;;;;;;14.27;88.70;99338.47;5444600;26;20290;-80
2024/04/13 07:31:59;;;;;;;7.13;5.20;;;;;;;14.34;87.67;99323.81;5446901;26;20276;-82
2024/04/13 07:34:27;;;;;;;6.03;5.23;;;;;;;14.55;88.69;99333.06;5446344;26;20228;-85
2024/04/13 07:36:52;;;;;;;6.90;4.93;;;;;;;14.74;89.51;99344.19;5448638;26;20228;-86
2024/04/13 07:39:21;;;;;;;7.93;5.30;;;;;;;14.92;87.14;99329.66;5448846;26;20386;-85
2024/04/13 07:41:47;;;;;;;6.57;5.10;;;;;;;14.94;84.03;99319.72;5448740;26;20266;-83
2024/04/13 07:44:17;;;;;;;7.50;5.60;;;;;;;14.96;82.93;99329.31;5447773;26;20228;-85
2024/04/13 07:46:43;;;;;;;7.33;5.40;;;;;;;15.05;83.58;99335.84;5451075;25;20259;-85
2024/04/13 07:49:20;;;;;;;8.97;6.00;;;;;;;15.17;82.57;99332.34;5449631;26;20301;-83
2024/04/13 07:51:46;;;;;;;20.43;5.57;;;;;;;15.21;83.51;99340.00;5448472;25;20232;-84
2024/04/13 07:54:14;;;;;;;8.83;4.83;;;;;;;15.32;81.95;99320.59;5447651;25;20233;-83
2024/04/13 07:56:40;;;;;;;8.87;4.80;;;;;;;15.41;79.62;99314.69;5443594;26;20331;-82
2024/04/13 07:59:08;;;;;;;7.17;4.97;;;;;;;15.55;79.68;99317.22;5443950;26;20240;-83
2024/04/13 08:01:36;;;;;;;6.17;4.90;;;;;;;15.63;78.58;99302.41;5444836;26;20267;-82
2024/04/13 08:04:04;;;;;;;6.73;4.90;;;;;;;15.86;77.88;99304.28;5444973;26;20279;-80
2024/04/13 08:06:30;;;;;;;7.60;4.67;;;;;;;15.90;76.09;99289.78;5443378;26;20345;-81
2024/04/13 08:08:58;;;;;;;5.93;4.93;;;;;;;16.04;76.28;99295.78;5442495;26;20233;-81
2024/04/13 08:11:24;;;;;;;7.40;4.90;;;;;;;16.07;73.50;99283.22;5442328;26;20248;-81
2024/04/13 08:13:52;;;;;;;6.80;4.70;;;;;;;16.12;72.65;99275.72;5442786;26;20309;-81
2024/04/13 08:16:17;;;;;;;5.00;4.17;;;;;;;16.17;72.82;99269.06;5414812;26;20281;-82
2024/04/13 08:18:49;;;;;;;6.27;4.30;;;;;;;16.33;73.17;99275.81;5406571;26;21055;-82
2024/04/13 08:21:15;;;;;;;6.10;4.27;;;;;;;16.46;73.82;99281.97;5406268;26;20273;-81
2024/04/13 08:23:43;;;;;;;9.20;5.60;;;;;;;16.66;71.97;99256.47;5406124;26;20257;-82
2024/04/13 08:26:09;;;;;;;7.97;4.70;;;;;;;16.90;71.66;99252.78;5406237;26;20735;-81
2024/04/13 08:28:37;;;;;;;8.17;4.67;;;;;;;16.96;69.48;99244.25;5406543;26;20234;-82
2024/04/13 08:31:04;;;;;;;10.57;4.60;;;;;;;17.11;70.78;99253.78;5405371;26;20313;-81
2024/04/13 08:33:32;;;;;;;10.50;4.50;;;;;;;17.16;67.64;99230.22;5406376;26;20283;-82
2024/04/13 08:36:03;;;;;;;6.30;4.87;;;;;;;17.26;68.77;99246.38;5405839;26;20319;-82
2024/04/13 08:38:31;;;;;;;7.23;4.57;;;;;;;17.32;67.29;99217.34;5406259;26;20721;-82
2024/04/13 08:41:02;;;;;;;5.87;4.30;;;;;;;17.51;67.63;99231.00;5405589;26;20378;-82
2024/04/13 08:43:30;;;;;;;5.60;4.10;;;;;;;17.65;68.59;99244.09;5406783;26;20226;-82
2024/04/13 08:45:57;;;;;;;5.43;3.87;;;;;;;17.79;67.73;99230.47;5405784;26;20289;-82
2024/04/13 08:48:25;;;;;;;5.53;4.13;;;;;;;18.00;66.98;99219.84;5406021;26;20261;-82
2024/04/13 08:50:53;;;;;;;7.00;4.10;;;;;;;18.16;64.85;99204.22;5404563;26;20238;-79
2024/04/13 08:53:25;;;;;;;4.80;3.40;;;;;;;18.38;65.02;99212.19;5402708;26;20229;-77
2024/04/13 08:55:53;;;;;;;5.43;3.17;;;;;;;18.41;61.99;99175.28;5407170;26;20289;-84
2024/04/13 08:58:23;;;;;;;4.97;3.50;;;;;;;18.48;62.74;99187.19;5408800;26;20611;-83
2024/04/13 09:00:52;;;;;;;5.10;3.70;;;;;;;18.47;60.32;99179.31;5407485;26;20315;-81
2024/04/13 09:03:23;;;;;;;6.80;3.47;;;;;;;18.54;60.91;99196.53;5408057;26;20359;-81
2024/04/13 09:05:48;;;;;;;5.67;3.03;;;;;;;18.79;62.45;99217.56;5406949;26;20226;-81
2024/04/13 09:08:17;;;;;;;4.67;3.50;;;;;;;18.87;60.70;99199.88;5426726;26;20228;-81
2024/04/13 09:10:46;;;;;;;3.60;2.80;;;;;;;18.94;61.37;99203.72;5444330;26;20690;-84
2024/04/13 09:13:15;;;;;;;4.57;2.97;;;;;;;19.01;60.06;99196.84;5443778;26;20232;-80
2024/04/13 09:15:43;;;;;;;3.87;2.60;;;;;;;19.27;62.64;99214.19;5444277;26;20224;-81
2024/04/13 09:18:11;;;;;;;4.17;2.67;;;;;;;19.27;61.05;99197.28;5443961;26;20262;-81
2024/04/13 09:20:37;;;;;;;5.03;3.30;;;;;;;19.44;62.32;99205.53;5443288;26;20297;-80
2024/04/13 09:23:06;;;;;;;5.53;3.10;;;;;;;19.55;60.08;99175.94;5441584;26;20232;-80
2024/04/13 09:25:31;;;;;;;3.43;2.90;;;;;;;19.54;58.25;99159.97;5443386;26;21036;-80
2024/04/13 09:28:04;;;;;;;2.83;2.50;;;;;;;19.62;58.52;99171.72;5443421;26;20320;-79
2024/04/13 09:30:30;;;;;;;4.73;3.23;;;;;;;19.75;60.78;99191.09;5441681;26;21036;-79
2024/04/13 09:33:03;;;;;;;4.33;3.37;;;;;;;19.79;60.70;99197.88;5443552;26;20274;-79
2024/04/13 09:35:29;;;;;;;5.20;2.87;;;;;;;19.90;58.78;99164.72;5442944;26;20224;-81
2024/04/13 09:37:59;;;;;;;4.10;3.07;;;;;;;20.11;61.74;99209.28;5442683;26;20331;-80
2024/04/13 09:40:25;;;;;;;3.67;3.00;;;;;;;20.08;57.48;99145.16;5441358;26;20244;-80
2024/04/13 09:42:53;;;;;;;3.47;2.80;;;;;;;20.07;57.22;99140.78;5442517;26;20345;-79
2024/04/13 09:45:21;;;;;;;3.83;2.73;;;;;;;20.17;58.29;99152.34;5442344;26;20229;-80
2024/04/13 09:47:52;;;;;;;4.57;2.70;;;;;;;20.16;57.61;99145.28;5443267;26;20225;-86
2024/04/13 09:50:18;;;;;;;5.60;3.00;;;;;;;20.17;57.07;99136.22;5443260;26;20576;-83
2024/04/13 09:52:47;;;;;;;3.53;2.30;;;;;;;20.25;57.42;99133.66;5442662;26;20331;-84
2024/04/13 09:55:13;;;;;;;3.60;2.70;;;;;;;20.38;56.71;99128.03;5444113;26;20273;-83
2024/04/13 09:57:43;;;;;;;4.03;2.60;;;;;;;20.60;54.60;99112.44;5444291;26;20283;-80
2024/04/13 10:00:11;;;;;;;8.03;2.60;;;;;;;20.65;54.29;99120.03;5443946;26;20787;-82
2024/04/13 10:02:42;;;;;;;3.20;2.30;;;;;;;20.72;55.97;99132.75;5444407;26;20267;-81
2024/04/13 10:05:07;;;;;;;5.50;2.53;;;;;;;20.86;57.35;99147.59;5442615;26;20331;-79
2024/04/13 10:07:37;;;;;;;3.03;2.20;;;;;;;20.98;54.70;99120.41;5444054;26;20236;-80
2024/04/13 10:10:08;;;;;;;3.37;2.33;;;;;;;21.18;54.52;99119.34;5443669;26;20621;-81
2024/04/13 10:12:39;;;;;;;4.50;2.80;;;;;;;21.36;55.89;99127.47;5443418;26;20228;-81
2024/04/13 10:15:07;;;;;;;3.90;2.90;;;;;;;21.47;53.32;99090.44;5443950;26;20297;-81
2024/04/13 10:17:36;;;;;;;4.60;2.60;;;;;;;21.54;55.07;99121.16;5443628;26;20228;-82
2024/04/13 10:20:06;;;;;;;3.97;2.53;;;;;;;21.63;53.44;99103.25;5443123;26;20299;-82
2024/04/13 10:22:36;;;;;;;3.80;2.40;;;;;;;21.81;53.81;99096.91;5443177;26;20404;-82
2024/04/13 10:25:06;;;;;;;4.73;2.80;;;;;;;21.91;53.64;99096.84;5443187;26;20785;-82
2024/04/13 10:27:35;;;;;;;5.37;2.70;;;;;;;21.89;50.96;99082.69;5443989;26;20251;-82
2024/04/13 10:30:03;;;;;;;3.33;2.80;;;;;;;21.85;50.39;99086.69;5443508;26;20365;-81
2024/04/13 10:32:31;;;;;;;3.90;2.50;;;;;;;21.84;51.38;99096.63;5443304;26;20216;-81
2024/04/13 10:35:11;;;;;;;4.63;2.83;;;;;;;21.85;49.74;99081.28;5443405;26;20290;-79
2024/04/13 10:37:39;;;;;;;3.37;2.77;;;;;;;21.83;50.13;99084.13;5442859;26;20235;-80
2024/04/13 10:40:07;;;;;;;4.73;2.10;;;;;;;21.82;51.42;99087.81;5442631;26;20232;-79
2024/04/13 10:42:36;;;;;;;3.87;2.10;;;;;;;21.86;51.49;99099.13;5444278;26;20232;-82
2024/04/13 10:45:09;;;;;;;3.50;2.67;;;;;;;22.09;50.22;99079.69;5442721;26;20379;-80
2024/04/13 10:47:39;;;;;;;4.10;2.50;;;;;;;22.17;49.53;99081.59;5445066;26;20236;-82
2024/04/13 10:50:08;;;;;;;3.40;2.40;;;;;;;22.17;51.48;99092.34;5445558;26;20352;-83
2024/04/13 10:52:39;;;;;;;4.03;2.30;;;;;;;22.17;50.35;99082.44;5444512;26;20344;-84
2024/04/13 10:55:05;;;;;;;2.87;2.20;;;;;;;22.25;50.92;99085.19;5444415;26;20272;-84
2024/04/13 10:57:34;;;;;;;2.33;2.10;;;;;;;22.26;50.67;99070.72;5443883;26;20228;-78
2024/04/13 10:59:59;;;;;;;3.10;2.57;;;;;;;22.31;52.81;99100.72;5443612;26;20296;-78
2024/04/13 11:02:27;;;;;;;3.40;2.20;;;;;;;22.34;52.54;99095.03;5443691;26;20224;-79
2024/04/13 11:04:53;;;;;;;4.67;2.30;;;;;;;22.53;50.06;99056.31;5442952;26;20701;-79
2024/04/13 11:07:21;;;;;;;3.23;2.50;;;;;;;22.58;48.86;99049.44;5443760;26;20232;-79
2024/04/13 11:09:49;;;;;;;4.87;2.47;;;;;;;22.63;49.59;99071.38;5442705;26;20864;-78
2024/04/13 11:12:17;;;;;;;4.37;2.40;;;;;;;22.66;48.38;99062.09;5444015;26;20244;-78
2024/04/13 11:14:47;;;;;;;3.60;2.43;;;;;;;22.65;48.71;99061.28;5443768;26;20276;-78
2024/04/13 11:17:15;;;;;;;3.60;2.27;;;;;;;22.68;50.11;99076.28;5443099;26;20764;-78
2024/04/13 11:19:41;;;;;;;4.17;2.47;;;;;;;22.76;48.59;99058.31;5443650;26;20292;-78
2024/04/13 11:22:12;;;;;;;4.47;2.50;;;;;;;22.88;47.39;99048.94;5444813;26;20319;-78
2024/04/13 11:24:38;;;;;;;4.30;2.73;;;;;;;22.74;48.11;99059.47;5444456;26;20258;-78
2024/04/13 11:27:09;;;;;;;5.13;2.47;;;;;;;22.80;50.38;99075.84;5445406;26;20221;-78
2024/04/13 11:29:35;;;;;;;2.50;1.90;;;;;;;22.92;50.29;99069.16;5444361;26;20394;-78
2024/04/13 11:32:04;;;;;;;3.17;2.20;;;;;;;22.92;49.84;99052.16;5444254;26;20254;-78